createdAt,value
2019-05-22T00:01:59.208Z,74.60
2019-05-22T00:04:26.105Z,74.60
2019-05-22T00:06:52.895Z,74.10
2019-05-22T00:09:19.498Z,74.40
2019-05-22T00:11:46.174Z,74.40
2019-05-22T00:14:13.050Z,74.10
2019-05-22T00:16:39.890Z,74.70
2019-05-22T00:19:06.632Z,75.00
2019-05-22T00:21:33.453Z,74.70
2019-05-22T00:24:01.305Z,74.30
2019-05-22T00:26:30.846Z,74.40
2019-05-22T00:28:57.667Z,74.10
2019-05-22T00:31:24.498Z,74.10
2019-05-22T00:33:51.219Z,74.50
2019-05-22T00:36:18.405Z,74.40
2019-05-22T00:38:45.348Z,74.50
2019-05-22T00:41:14.894Z,74.00
2019-05-22T00:43:42.496Z,74.10
2019-05-22T00:46:10.623Z,74.80
2019-05-22T00:48:38.456Z,74.30
2019-05-22T00:51:07.771Z,74.40
2019-05-22T00:53:34.608Z,74.40
2019-05-22T00:56:02.954Z,74.50
2019-05-22T00:58:29.897Z,74.20
2019-05-22T01:00:58.522Z,73.70
2019-05-22T01:03:25.665Z,73.80
2019-05-22T01:05:54.843Z,74.40
2019-05-22T01:08:21.678Z,75.20
2019-05-22T01:10:48.537Z,75.00
2019-05-22T01:13:16.231Z,73.90
2019-05-22T01:15:43.064Z,74.50
2019-05-22T01:18:09.801Z,74.30
2019-05-22T01:20:45.331Z,74.70
2019-05-22T01:23:14.707Z,74.20
2019-05-22T01:25:41.408Z,74.90
2019-05-22T01:28:09.283Z,75.30
2019-05-22T01:30:36.704Z,75.40
2019-05-22T01:33:04.536Z,74.30
2019-05-22T01:35:31.449Z,74.70
2019-05-22T01:37:59.169Z,75.10
2019-05-22T01:40:46.247Z,75.40
2019-05-22T01:43:15.299Z,75.40
2019-05-22T01:45:42.608Z,75.10
2019-05-22T01:48:14.833Z,75.30
2019-05-22T01:50:45.389Z,74.90
2019-05-22T01:53:12.262Z,74.50
2019-05-22T01:55:40.249Z,74.80
2019-05-22T01:58:07.675Z,74.50
2019-05-22T02:00:34.946Z,74.70
2019-05-22T02:03:01.737Z,75.10
2019-05-22T02:05:29.484Z,75.20
2019-05-22T02:07:56.197Z,75.50
2019-05-22T02:10:37.317Z,75.60
2019-05-22T02:13:06.829Z,75.20
2019-05-22T02:15:34.365Z,75.40
2019-05-22T02:18:06.670Z,75.30
2019-05-22T02:20:33.593Z,75.30
2019-05-22T02:23:00.461Z,74.60
2019-05-22T02:25:29.234Z,74.80
2019-05-22T02:27:56.275Z,75.00
2019-05-22T02:30:23.132Z,75.30
2019-05-22T02:32:51.498Z,75.00
2019-05-22T02:35:18.349Z,75.10
2019-05-22T02:37:45.212Z,74.80
2019-05-22T02:40:32.456Z,74.80
2019-05-22T02:42:59.603Z,74.80
2019-05-22T02:45:26.541Z,75.30
2019-05-22T02:47:54.753Z,74.90
2019-05-22T02:50:22.296Z,75.60
2019-05-22T02:52:49.010Z,75.50
2019-05-22T02:55:15.898Z,75.40
2019-05-22T02:57:43.549Z,75.70
2019-05-22T03:00:13.129Z,75.50
2019-05-22T03:02:48.039Z,75.60
2019-05-22T03:05:16.180Z,75.70
2019-05-22T03:07:43.710Z,75.50
2019-05-22T03:10:13.695Z,75.50
2019-05-22T03:12:43.130Z,75.50
2019-05-22T03:15:14.356Z,75.40
2019-05-22T03:17:41.756Z,75.20
2019-05-22T03:20:13.139Z,75.50
2019-05-22T03:22:59.728Z,75.50
2019-05-22T03:25:26.569Z,75.50
2019-05-22T03:27:53.319Z,75.70
2019-05-22T03:30:28.036Z,76.00
2019-05-22T03:32:55.356Z,76.20
2019-05-22T03:35:23.525Z,76.00
2019-05-22T03:37:51.127Z,75.70
2019-05-22T03:40:18.548Z,75.20
2019-05-22T03:42:45.273Z,75.50
2019-05-22T03:45:12.567Z,75.10
2019-05-22T03:47:40.215Z,75.60
2019-05-22T03:50:08.357Z,75.90
2019-05-22T03:52:35.137Z,76.00
2019-05-22T03:55:04.262Z,75.90
2019-05-22T03:57:31.087Z,75.90
2019-05-22T03:59:58.820Z,76.10
2019-05-22T04:02:25.901Z,76.10
2019-05-22T04:04:52.741Z,76.30
2019-05-22T04:07:21.448Z,76.20
2019-05-22T04:09:50.193Z,76.40
2019-05-22T04:12:16.938Z,76.60
2019-05-22T04:14:44.381Z,76.40
2019-05-22T04:17:12.005Z,76.40
2019-05-22T04:19:49.142Z,76.30
2019-05-22T04:22:08.516Z,77.30
2019-05-22T04:24:36.253Z,76.60
2019-05-22T04:27:03.510Z,76.20
2019-05-22T04:29:30.722Z,76.10
2019-05-22T04:31:57.857Z,76.10
2019-05-22T04:34:24.793Z,75.70
2019-05-22T04:36:51.797Z,76.00
2019-05-22T04:39:21.125Z,76.10
2019-05-22T04:41:48.185Z,76.40
2019-05-22T04:44:15.163Z,76.40
2019-05-22T04:46:42.211Z,76.50
2019-05-22T04:49:08.960Z,76.60
2019-05-22T04:51:35.852Z,77.00
2019-05-22T04:54:03.182Z,77.20
2019-05-22T04:56:30.253Z,77.30
2019-05-22T04:58:58.054Z,77.20
2019-05-22T05:01:25.343Z,77.20
2019-05-22T05:03:52.374Z,77.70
2019-05-22T05:06:21.094Z,77.80
2019-05-22T05:08:48.241Z,77.60
2019-05-22T05:11:14.963Z,77.40
2019-05-22T05:13:42.144Z,77.80
2019-05-22T05:16:08.895Z,78.30
2019-05-22T05:18:35.641Z,78.10
2019-05-22T05:21:02.659Z,78.50
2019-05-22T05:23:29.379Z,77.70
2019-05-22T05:25:56.122Z,77.80
2019-05-22T05:28:23.322Z,78.10
2019-05-22T05:30:50.469Z,77.80
2019-05-22T05:33:17.990Z,78.30
2019-05-22T05:35:45.322Z,78.50
2019-05-22T05:38:12.944Z,78.40
2019-05-22T05:40:40.436Z,78.40
2019-05-22T05:43:13.597Z,78.50
2019-05-22T05:45:44.168Z,78.40
2019-05-22T05:48:15.761Z,78.90
2019-05-22T05:51:06.059Z,79.10
2019-05-22T05:53:56.205Z,78.90
2019-05-22T05:56:24.648Z,79.20
2019-05-22T05:58:51.672Z,78.90
2019-05-22T06:01:21.799Z,79.00
2019-05-22T06:03:48.582Z,78.80
2019-05-22T06:06:26.725Z,78.50
2019-05-22T06:08:57.281Z,78.60
2019-05-22T06:11:45.980Z,78.70
2019-05-22T06:14:27.095Z,77.90
2019-05-22T06:17:23.985Z,77.90
2019-05-22T06:20:05.308Z,78.30
2019-05-22T06:22:32.402Z,78.50
2019-05-22T06:25:00.355Z,78.90
2019-05-22T06:27:29.440Z,78.60
2019-05-22T06:29:59.375Z,77.20
2019-05-22T06:32:31.556Z,76.90
2019-05-22T06:34:59.806Z,76.70
2019-05-22T06:37:47.742Z,75.80
2019-05-22T06:40:14.953Z,75.90
2019-05-22T06:42:47.122Z,75.20
2019-05-22T06:45:13.997Z,74.60
2019-05-22T06:47:40.713Z,73.80
2019-05-22T06:50:08.169Z,73.80
2019-05-22T06:52:35.667Z,73.50
2019-05-22T06:55:03.098Z,72.70
2019-05-22T06:57:30.153Z,72.00
2019-05-22T07:00:12.212Z,71.40
2019-05-22T07:02:29.975Z,70.70
2019-05-22T07:04:56.785Z,70.30
2019-05-22T07:07:24.099Z,70.20
2019-05-22T07:09:51.337Z,69.50
2019-05-22T07:12:19.693Z,65.20
2019-05-22T07:15:04.222Z,64.20
2019-05-22T07:17:31.167Z,63.00
2019-05-22T07:19:58.519Z,62.20
2019-05-22T07:22:26.707Z,62.50
2019-05-22T07:24:53.654Z,62.30
2019-05-22T07:27:23.502Z,62.70
2019-05-22T07:29:50.392Z,61.80
2019-05-22T07:32:18.302Z,61.90
2019-05-22T07:34:45.428Z,61.50
2019-05-22T07:37:12.334Z,61.10
2019-05-22T07:39:55.233Z,60.80
2019-05-22T07:42:22.232Z,60.70
2019-05-22T07:44:48.946Z,60.30
2019-05-22T07:47:21.095Z,60.90
2019-05-22T07:49:48.090Z,60.90
2019-05-22T07:52:15.125Z,61.00
2019-05-22T07:54:41.930Z,60.90
2019-05-22T07:57:09.197Z,60.90
2019-05-22T07:59:36.305Z,59.80
2019-05-22T08:02:04.014Z,61.20
2019-05-22T08:04:31.318Z,59.80
2019-05-22T08:06:58.053Z,59.20
2019-05-22T08:09:26.080Z,58.20
2019-05-22T08:11:53.289Z,58.30
2019-05-22T08:14:21.209Z,57.60
2019-05-22T08:16:48.414Z,58.00
2019-05-22T08:19:15.305Z,57.80
2019-05-22T08:21:42.046Z,56.90
2019-05-22T08:24:09.369Z,56.90
2019-05-22T08:26:53.245Z,56.40
2019-05-22T08:29:05.881Z,56.60
2019-05-22T08:31:32.900Z,55.90
2019-05-22T08:34:00.063Z,54.50
2019-05-22T08:36:27.462Z,55.40
2019-05-22T08:38:54.405Z,56.00
2019-05-22T08:41:26.607Z,55.40
2019-05-22T08:44:14.385Z,54.80
2019-05-22T08:46:22.878Z,55.60
2019-05-22T08:48:51.838Z,55.80
2019-05-22T08:51:19.119Z,54.80
2019-05-22T08:53:47.957Z,54.40
2019-05-22T08:56:15.269Z,55.30
2019-05-22T08:58:43.103Z,54.60
2019-05-22T09:01:11.373Z,55.70
2019-05-22T09:03:38.948Z,54.70
2019-05-22T09:06:05.800Z,54.70
2019-05-22T09:08:32.816Z,54.10
2019-05-22T09:10:59.757Z,53.90
2019-05-22T09:13:26.467Z,54.10
2019-05-22T09:15:53.196Z,54.60
2019-05-22T09:18:20.493Z,54.20
2019-05-22T09:20:49.641Z,54.60
2019-05-22T09:23:16.188Z,53.40
2019-05-22T09:25:43.067Z,52.70
2019-05-22T09:28:09.913Z,51.70
2019-05-22T09:30:37.035Z,51.50
2019-05-22T09:33:03.906Z,51.50
2019-05-22T09:35:30.914Z,51.70
2019-05-22T09:37:57.646Z,52.00
2019-05-22T09:40:24.485Z,53.30
2019-05-22T09:42:51.256Z,51.60
2019-05-22T09:45:18.708Z,51.00
2019-05-22T09:47:45.997Z,51.20
2019-05-22T09:50:13.913Z,51.30
2019-05-22T09:52:56.435Z,51.60
2019-05-22T09:55:10.990Z,51.30
2019-05-22T09:57:37.729Z,51.00
2019-05-22T10:00:08.813Z,50.90
2019-05-22T10:02:35.693Z,50.00
2019-05-22T10:05:04.792Z,50.30
2019-05-22T10:07:31.747Z,50.00
2019-05-22T10:09:59.493Z,50.00
2019-05-22T10:12:26.393Z,49.10
2019-05-22T10:14:53.440Z,49.70
2019-05-22T10:17:20.391Z,49.70
2019-05-22T10:19:48.154Z,49.40
2019-05-22T10:22:15.084Z,49.10
2019-05-22T10:24:42.603Z,48.70
2019-05-22T10:27:09.596Z,48.10
2019-05-22T10:29:36.329Z,48.10
2019-05-22T10:32:03.440Z,48.60
2019-05-22T10:34:30.260Z,47.10
2019-05-22T10:36:57.581Z,46.90
2019-05-22T10:39:24.955Z,46.40
2019-05-22T10:41:51.882Z,46.30
2019-05-22T10:44:18.909Z,46.30
2019-05-22T10:46:45.890Z,45.60
2019-05-22T10:49:12.636Z,45.40
2019-05-22T10:51:39.468Z,45.80
2019-05-22T10:54:08.929Z,45.30
2019-05-22T10:56:35.670Z,46.00
2019-05-22T10:59:02.841Z,45.70
2019-05-22T11:01:30.437Z,47.00
2019-05-22T11:03:59.175Z,46.00
2019-05-22T11:06:25.950Z,45.60
2019-05-22T11:08:52.823Z,45.10
2019-05-22T11:11:19.971Z,44.80
2019-05-22T11:14:00.486Z,42.00
2019-05-22T11:16:15.928Z,43.90
2019-05-22T11:18:42.788Z,44.70
2019-05-22T11:21:10.642Z,43.90
2019-05-22T11:23:51.552Z,44.60
2019-05-22T11:26:07.044Z,43.10
2019-05-22T11:28:34.044Z,43.00
2019-05-22T11:31:01.184Z,42.60
2019-05-22T11:33:28.140Z,42.30
2019-05-22T11:35:54.969Z,41.80
2019-05-22T11:38:21.938Z,42.00
2019-05-22T11:40:48.852Z,43.50
2019-05-22T11:43:15.694Z,41.90
2019-05-22T11:45:45.107Z,40.50
2019-05-22T11:48:11.239Z,41.10
2019-05-22T11:50:37.953Z,41.20
2019-05-22T11:53:05.025Z,41.00
2019-05-22T11:55:44.435Z,41.10
2019-05-22T11:58:00.696Z,39.90
2019-05-22T12:00:27.871Z,40.40
2019-05-22T12:02:55.118Z,40.20
2019-05-22T12:05:22.631Z,38.30
2019-05-22T12:07:50.183Z,37.90
2019-05-22T12:10:18.904Z,38.00
2019-05-22T12:12:45.885Z,37.80
2019-05-22T12:15:13.883Z,36.10
2019-05-22T12:17:40.843Z,38.20
2019-05-22T12:20:09.833Z,37.20
2019-05-22T12:22:36.935Z,35.00
2019-05-22T12:25:11.303Z,34.50
2019-05-22T12:27:38.014Z,39.00
2019-05-22T12:30:06.907Z,36.00
2019-05-22T12:32:34.457Z,37.50
2019-05-22T12:35:01.301Z,36.80
2019-05-22T12:37:29.462Z,34.80
2019-05-22T12:39:57.272Z,37.00
2019-05-22T12:42:24.350Z,37.50
2019-05-22T12:44:51.351Z,36.80
2019-05-22T12:47:19.404Z,36.80
2019-05-22T12:49:46.787Z,34.60
2019-05-22T12:52:14.043Z,35.30
2019-05-22T12:54:47.015Z,34.50
2019-05-22T12:57:09.945Z,37.00
2019-05-22T12:59:36.815Z,36.20
2019-05-22T13:02:03.754Z,36.60
2019-05-22T13:04:30.994Z,37.00
2019-05-22T13:06:58.947Z,36.80
2019-05-22T13:09:27.928Z,36.60
2019-05-22T13:11:54.758Z,37.40
2019-05-22T13:14:22.520Z,38.00
2019-05-22T13:16:49.457Z,37.90
2019-05-22T13:19:16.212Z,37.80
2019-05-22T13:21:44.920Z,38.50
2019-05-22T13:24:19.040Z,38.30
2019-05-22T13:26:46.855Z,38.60
2019-05-22T13:29:13.866Z,38.60
2019-05-22T13:31:41.205Z,39.50
2019-05-22T13:34:12.102Z,40.90
2019-05-22T13:36:39.334Z,39.80
2019-05-22T13:39:07.186Z,40.10
2019-05-22T13:41:34.103Z,40.70
2019-05-22T13:44:03.676Z,40.40
2019-05-22T13:46:30.719Z,40.50
2019-05-22T13:48:57.476Z,41.50
2019-05-22T13:51:25.142Z,40.80
2019-05-22T13:53:52.575Z,39.70
2019-05-22T13:56:20.312Z,39.60
2019-05-22T13:58:47.833Z,41.20
2019-05-22T14:01:14.690Z,41.60
2019-05-22T14:03:41.872Z,41.40
2019-05-22T14:06:08.939Z,39.40
2019-05-22T14:08:36.118Z,39.00
2019-05-22T14:11:04.132Z,37.40
2019-05-22T14:13:30.982Z,40.20
2019-05-22T14:15:58.149Z,37.90
2019-05-22T14:18:25.125Z,32.30
2019-05-22T14:20:52.116Z,33.50
2019-05-22T14:23:29.236Z,34.20
2019-05-22T14:25:59.005Z,34.80
2019-05-22T14:28:25.939Z,34.60
2019-05-22T14:30:52.943Z,36.00
2019-05-22T14:33:19.693Z,36.50
2019-05-22T14:35:49.633Z,35.70
2019-05-22T14:38:17.194Z,37.50
2019-05-22T14:40:44.555Z,38.20
2019-05-22T14:43:11.743Z,38.50
2019-05-22T14:45:38.654Z,37.70
2019-05-22T14:48:05.590Z,38.60
2019-05-22T14:50:33.079Z,37.90
2019-05-22T14:53:20.874Z,37.80
2019-05-22T14:55:49.852Z,35.70
2019-05-22T14:58:17.469Z,34.00
2019-05-22T15:00:45.437Z,32.60
2019-05-22T15:03:12.258Z,33.50
2019-05-22T15:05:39.100Z,34.00
2019-05-22T15:08:06.558Z,34.70
2019-05-22T15:10:33.400Z,33.70
2019-05-22T15:13:00.558Z,35.60
2019-05-22T15:15:29.336Z,36.90
2019-05-22T15:17:56.889Z,36.40
2019-05-22T15:20:26.052Z,35.80
2019-05-22T15:22:55.985Z,36.10
2019-05-22T15:25:21.893Z,36.10
2019-05-22T15:27:48.897Z,35.50
2019-05-22T15:30:18.586Z,37.50
2019-05-22T15:32:45.336Z,37.90
2019-05-22T15:35:13.073Z,38.40
2019-05-22T15:37:40.359Z,38.80
2019-05-22T15:40:08.501Z,39.00
2019-05-22T15:42:43.034Z,39.10
2019-05-22T15:45:17.709Z,39.60
2019-05-22T15:47:54.366Z,39.80
2019-05-22T15:50:18.883Z,40.10
2019-05-22T15:52:54.099Z,40.10
2019-05-22T15:55:23.682Z,40.10
2019-05-22T15:57:50.486Z,41.30
2019-05-22T16:00:22.316Z,40.20
2019-05-22T16:02:50.062Z,40.30
2019-05-22T16:05:17.805Z,40.90
2019-05-22T16:07:47.791Z,39.70
2019-05-22T16:10:15.292Z,40.00
2019-05-22T16:12:45.629Z,39.80
2019-05-22T16:15:16.957Z,40.30
2019-05-22T16:17:48.312Z,40.50
2019-05-22T16:20:20.659Z,40.50
2019-05-22T16:26:28.861Z,41.50
2019-05-22T16:28:56.811Z,41.20
2019-05-22T16:31:24.372Z,41.80
2019-05-22T16:33:51.771Z,41.40
2019-05-22T16:36:18.820Z,41.90
2019-05-22T16:38:46.669Z,42.20
2019-05-22T16:41:14.686Z,42.20
2019-05-22T16:43:49.697Z,42.60
2019-05-22T16:46:14.597Z,43.40
2019-05-22T16:48:43.213Z,44.40
2019-05-22T16:51:15.361Z,44.60
2019-05-22T16:53:53.271Z,44.50
2019-05-22T16:56:30.975Z,43.80
2019-05-22T16:58:57.715Z,43.20
2019-05-22T17:01:25.873Z,42.50
2019-05-22T17:03:56.755Z,43.70
2019-05-22T17:06:24.748Z,43.50
2019-05-22T17:08:53.987Z,44.80
2019-05-22T17:11:22.192Z,44.60
2019-05-22T17:13:50.068Z,44.50
2019-05-22T17:16:16.758Z,49.20
2019-05-22T17:18:48.681Z,48.70
2019-05-22T17:21:16.410Z,49.50
2019-05-22T17:23:46.695Z,51.90
2019-05-22T17:26:19.929Z,52.20
2019-05-22T17:28:51.647Z,53.10
2019-05-22T17:31:19.844Z,51.80
2019-05-22T17:33:47.833Z,50.90
2019-05-22T17:36:20.215Z,51.90
2019-05-22T17:38:47.181Z,51.30
2019-05-22T17:41:14.356Z,51.80
2019-05-22T17:43:41.491Z,50.60
2019-05-22T17:46:08.737Z,52.20
2019-05-22T17:48:35.800Z,52.10
2019-05-22T17:51:03.036Z,52.10
2019-05-22T17:53:29.925Z,51.00
2019-05-22T17:55:57.513Z,52.90
2019-05-22T17:58:28.991Z,53.00
2019-05-22T18:00:53.364Z,52.70
2019-05-22T18:03:20.544Z,53.00
2019-05-22T18:05:47.578Z,54.10
2019-05-22T18:08:14.905Z,53.10
2019-05-22T18:10:45.815Z,53.60
2019-05-22T18:13:13.482Z,54.60
2019-05-22T18:15:40.413Z,54.40
2019-05-22T18:18:08.866Z,54.70
2019-05-22T18:20:43.383Z,55.10
2019-05-22T18:23:04.741Z,54.80
2019-05-22T18:25:32.257Z,54.90
2019-05-22T18:27:59.098Z,53.50
2019-05-22T18:30:25.946Z,54.10
2019-05-22T18:32:52.924Z,54.80
2019-05-22T18:35:19.743Z,55.30
2019-05-22T18:37:46.727Z,56.30
2019-05-22T18:40:16.113Z,55.70
2019-05-22T18:42:43.348Z,55.40
2019-05-22T18:45:11.870Z,55.80
2019-05-22T18:47:38.734Z,55.40
2019-05-22T18:50:06.988Z,55.40
2019-05-22T18:52:40.989Z,55.60
2019-05-22T18:55:04.942Z,55.90
2019-05-22T18:57:33.374Z,55.60
2019-05-22T19:00:04.585Z,55.40
2019-05-22T19:02:28.862Z,55.30
2019-05-22T19:04:55.819Z,55.70
2019-05-22T19:07:23.224Z,56.20
2019-05-22T19:09:50.187Z,55.90
2019-05-22T19:12:16.913Z,56.40
2019-05-22T19:14:43.829Z,56.50
2019-05-22T19:17:10.818Z,57.00
2019-05-22T19:19:37.604Z,57.30
2019-05-22T19:22:04.547Z,57.40
2019-05-22T19:24:31.627Z,57.00
2019-05-22T19:26:59.701Z,57.00
2019-05-22T19:29:27.107Z,57.40
2019-05-22T19:31:54.319Z,57.60
2019-05-22T19:34:21.348Z,57.20
2019-05-22T19:36:48.699Z,57.30
2019-05-22T19:39:15.928Z,57.00
2019-05-22T19:41:44.042Z,57.40
2019-05-22T19:44:10.989Z,58.10
2019-05-22T19:46:37.979Z,57.40
2019-05-22T19:49:04.877Z,58.90
2019-05-22T19:51:32.510Z,58.10
2019-05-22T19:53:59.383Z,59.00
2019-05-22T19:56:26.437Z,59.20
2019-05-22T19:58:53.161Z,59.30
2019-05-22T20:01:20.068Z,59.20
2019-05-22T20:03:46.908Z,59.00
2019-05-22T20:06:13.836Z,58.70
2019-05-22T20:08:40.936Z,59.10
2019-05-22T20:11:07.860Z,59.50
2019-05-22T20:13:35.301Z,59.80
2019-05-22T20:16:02.301Z,59.60
2019-05-22T20:18:29.195Z,59.70
2019-05-22T20:20:56.023Z,59.90
2019-05-22T20:23:35.135Z,60.50
2019-05-22T20:25:51.633Z,59.90
2019-05-22T20:28:18.786Z,59.70
2019-05-22T20:30:46.447Z,59.90
2019-05-22T20:33:13.998Z,59.70
2019-05-22T20:35:41.214Z,59.90
2019-05-22T20:38:08.225Z,59.70
2019-05-22T20:40:35.269Z,60.00
2019-05-22T20:43:03.503Z,60.00
2019-05-22T20:45:30.907Z,59.80
2019-05-22T20:48:10.085Z,59.90
2019-05-22T20:50:37.352Z,60.70
2019-05-22T20:53:04.285Z,60.40
2019-05-22T20:55:31.120Z,60.90
2019-05-22T20:57:58.308Z,61.10
2019-05-22T21:00:25.345Z,61.00
2019-05-22T21:02:57.499Z,62.40
2019-05-22T21:05:24.421Z,62.50
2019-05-22T21:07:56.542Z,62.30
2019-05-22T21:10:23.278Z,62.70
2019-05-22T21:12:50.969Z,63.10
2019-05-22T21:15:19.702Z,62.90
2019-05-22T21:17:47.359Z,62.00
2019-05-22T21:20:14.315Z,61.90
2019-05-22T21:22:41.123Z,62.80
2019-05-22T21:25:09.058Z,63.10
2019-05-22T21:27:36.239Z,63.60
2019-05-22T21:30:08.564Z,63.40
2019-05-22T21:32:35.290Z,62.80
2019-05-22T21:35:03.385Z,62.30
2019-05-22T21:37:30.509Z,64.00
2019-05-22T21:39:57.515Z,64.10
2019-05-22T21:42:24.398Z,64.00
2019-05-22T21:44:51.409Z,63.80
2019-05-22T21:47:19.255Z,64.00
2019-05-22T21:49:47.361Z,63.40
2019-05-22T21:52:14.392Z,64.00
2019-05-22T21:54:41.836Z,64.00
2019-05-22T21:57:08.808Z,63.80
2019-05-22T21:59:35.858Z,63.90
2019-05-22T22:02:02.987Z,64.20
2019-05-22T22:04:30.457Z,64.20
2019-05-22T22:06:57.217Z,64.00
2019-05-22T22:09:24.767Z,64.10
2019-05-22T22:11:51.576Z,64.10
2019-05-22T22:14:18.823Z,64.70
2019-05-22T22:16:45.741Z,64.50
2019-05-22T22:19:13.379Z,64.10
2019-05-22T22:21:40.138Z,64.20
2019-05-22T22:24:07.464Z,64.30
2019-05-22T22:26:34.262Z,64.60
2019-05-22T22:29:01.392Z,64.80
2019-05-22T22:31:28.343Z,64.90
2019-05-22T22:34:03.494Z,64.50
2019-05-22T22:36:31.009Z,64.90
2019-05-22T22:38:57.940Z,64.60
2019-05-22T22:41:25.548Z,65.00
2019-05-22T22:43:54.167Z,64.80
2019-05-22T22:46:28.501Z,64.30
2019-05-22T22:48:56.251Z,64.40
2019-05-22T22:51:23.277Z,64.90
2019-05-22T22:53:50.472Z,64.80
2019-05-22T22:56:18.315Z,65.60
2019-05-22T22:58:46.046Z,65.10
2019-05-22T23:01:18.229Z,65.00
2019-05-22T23:03:47.072Z,64.70
2019-05-22T23:06:13.945Z,65.50
2019-05-22T23:08:41.061Z,65.80
2019-05-22T23:11:08.782Z,65.80
2019-05-22T23:13:35.907Z,65.00
2019-05-22T23:16:02.991Z,65.50
2019-05-22T23:18:41.201Z,66.40
2019-05-22T23:21:09.130Z,65.70
2019-05-22T23:23:35.434Z,66.10
2019-05-22T23:26:03.547Z,65.50
2019-05-22T23:28:34.699Z,65.50
2019-05-22T23:31:01.057Z,65.60
2019-05-22T23:33:29.300Z,65.90
2019-05-22T23:35:56.146Z,66.00
2019-05-22T23:38:23.166Z,66.50
2019-05-22T23:40:49.887Z,66.10
2019-05-22T23:43:18.581Z,66.60
2019-05-22T23:45:47.659Z,66.70
2019-05-22T23:48:14.949Z,67.40
2019-05-22T23:50:44.035Z,67.30
2019-05-22T23:53:11.161Z,66.80
2019-05-22T23:55:38.083Z,67.10
2019-05-22T23:58:05.282Z,67.10
